KLXT

Lee's Summit Municipal Airport

Lee's Summit, Missouri, USA
METAR KLXT 151309Z AUTO 25005KT 10SM FEW024 00/M02 A3014 RMK AO2 T00001017
Observed Flight Rules
Dec-15 @ 13:09 UTC (56 minutes ago) Visual Flight Rules
Wind Visibility Clouds
250° at 5 knots 10 miles
  • Few at 2,400' AGL
Temperatures Readings
Current 0°C / 32°F
Dewpoint -2°C / 28°F
Humidity 87%
Altimeter 30.14" Hg
Pressure 1021 hPa
Elevation 306
METAR KLXT 151309Z AUTO 25005KT 10SM FEW024 00/M02 A3014 RMK AO2 T00001017
Observed Flight Rules
Dec-15 @ 13:09 UTC
(56 minutes ago)
VFR
Wind Visibility
250° at 5 knots 10 miles
Clouds
  • Few at 2,400' AGL
Temperature Dewpoint
0°C / 32°F -2°C / 28°F
Humidity Altimeter Pressure
87% 30.14" Hg 1021 hPa